Arlington, Texas
Current Conditions -  °F | °C
As of 3:50 PM on Saturday 20 Dec 2014 (Local Time) from KGPM Reporting Station
Overcast Overcast  
Wind Chill: 46°   Ceiling: 1300
Heat Index: 46°   Visibility: 7mi
Dew Point: 45°   Wind: 0mph
Humidity: 93%   Direction: NA
Pressure: 30.2"   Gusts: NA
Location:  32.74°N, 97.11°W
Report Text: KGPM 202150Z 00000KT 7SM OVC013 08/07 A3020
Loading
Personal Weather Stations






























Interactive Weather Map New forecast layout! Learn more

10-Day Weather Forecast

Advertisements
Track Severe Weather on mobile